Time,TemperatureF,DewpointF,PressureIn,WindDirection,WindDirectionDegrees,WindSpeedMPH,WindSpeedGustMPH,Humidity,HourlyPrecipIn,Conditions,Clouds,dailyrainin,SoftwareType,DateUTC
2013-06-17 00:01:00,77.9,62.9,29.74,NW,315,1.0,0.0,60,0.00,,---,0.00,VWS V14.00,2013-06-17 04:01:00,
2013-06-17 00:02:00,77.7,62.7,29.74,NW,315,1.0,0.0,60,0.00,,---,0.00,VWS V14.00,2013-06-17 04:02:00,
2013-06-17 00:04:00,77.7,62.7,29.74,West,270,2.4,2.4,60,0.00,,---,0.00,VWS V14.00,2013-06-17 04:04:00,
2013-06-17 00:05:00,77.7,62.7,29.74,West,270,3.0,3.0,60,0.00,,---,0.00,VWS V14.00,2013-06-17 04:05:00,
2013-06-17 00:10:00,77.7,62.7,29.74,SSW,202,3.5,3.5,60,0.00,,---,0.00,VWS V14.00,2013-06-17 04:10:00,
2013-06-17 00:15:00,77.5,63.5,29.74,South,180,2.7,2.7,62,0.00,,---,0.00,VWS V14.00,2013-06-17 04:15:00,
2013-06-17 00:20:00,77.4,63.8,29.74,South,180,1.0,1.1,63,0.00,,---,0.00,VWS V14.00,2013-06-17 04:20:00,
2013-06-17 00:25:00,77.2,64.1,29.74,South,180,1.0,0.0,64,0.00,,---,0.00,VWS V14.00,2013-06-17 04:25:00,
2013-06-17 00:31:00,77.0,63.5,29.74,South,180,1.0,0.0,63,0.00,,---,0.00,VWS V14.00,2013-06-17 04:31:00,
2013-06-17 00:37:00,76.8,63.7,29.74,SE,135,1.0,0.0,64,0.00,,---,0.00,VWS V14.00,2013-06-17 04:37:00,
2013-06-17 00:42:00,77.0,63.9,29.74,SE,135,1.0,0.0,64,0.00,,---,0.00,VWS V14.00,2013-06-17 04:42:00,
2013-06-17 00:47:00,76.8,64.2,29.74,SE,135,1.0,0.0,65,0.00,,---,0.00,VWS V14.00,2013-06-17 04:47:00,
2013-06-17 00:52:00,76.8,64.2,29.74,SE,135,1.0,0.0,65,0.00,,---,0.00,VWS V14.00,2013-06-17 04:52:00,
2013-06-17 00:58:00,76.6,64.0,29.74,South,180,1.0,0.0,65,0.00,,---,0.00,VWS V14.00,2013-06-17 04:58:00,
2013-06-17 01:04:00,76.5,64.3,29.74,SW,225,1.0,0.0,66,0.00,,---,0.00,VWS V14.00,2013-06-17 05:04:00,
2013-06-17 01:10:00,76.5,64.3,29.74,SW,225,1.0,0.0,66,0.00,,---,0.00,VWS V14.00,2013-06-17 05:10:00,
2013-06-17 01:15:00,76.3,64.1,29.74,WSW,248,1.0,0.0,66,0.00,,---,0.00,VWS V14.00,2013-06-17 05:15:00,
2013-06-17 01:20:00,76.3,64.1,29.74,WSW,248,1.0,0.0,66,0.00,,---,0.00,VWS V14.00,2013-06-17 05:20:00,
2013-06-17 01:25:00,76.1,64.4,29.74,WSW,248,1.0,0.0,67,0.00,,---,0.00,VWS V14.00,2013-06-17 05:25:00,
2013-06-17 01:30:00,76.1,64.4,29.74,WSW,248,1.0,0.0,67,0.00,,---,0.00,VWS V14.00,2013-06-17 05:30:00,
2013-06-17 01:35:00,75.9,64.6,29.74,WSW,248,1.0,0.0,68,0.00,,---,0.00,VWS V14.00,2013-06-17 05:35:00,
2013-06-17 01:41:00,75.9,64.6,29.74,West,270,1.0,0.0,68,0.00,,---,0.00,VWS V14.00,2013-06-17 05:41:00,
2013-06-17 01:47:00,75.7,64.4,29.74,West,270,1.0,0.0,68,0.00,,---,0.00,VWS V14.00,2013-06-17 05:47:00,
2013-06-17 01:52:00,75.7,64.4,29.74,West,270,1.0,0.0,68,0.00,,---,0.00,VWS V14.00,2013-06-17 05:52:00,
2013-06-17 01:58:00,75.7,64.9,29.74,West,270,1.0,0.0,69,0.00,,---,0.00,VWS V14.00,2013-06-17 05:58:00,
2013-06-17 02:03:00,75.7,64.9,29.74,West,270,1.0,0.0,69,0.00,,---,0.00,VWS V14.00,2013-06-17 06:03:00,
2013-06-17 02:09:00,75.7,64.9,29.74,West,270,1.0,0.0,69,0.00,,---,0.00,VWS V14.00,2013-06-17 06:09:00,
2013-06-17 02:15:00,75.7,64.9,29.74,West,270,1.0,0.0,69,0.00,,---,0.00,VWS V14.00,2013-06-17 06:15:00,
2013-06-17 02:20:00,75.7,64.9,29.71,West,270,1.0,0.0,69,0.00,,---,0.00,VWS V14.00,2013-06-17 06:20:00,
2013-06-17 02:25:00,75.7,64.9,29.71,West,270,1.0,0.0,69,0.00,,---,0.00,VWS V14.00,2013-06-17 06:25:00,
2013-06-17 02:30:00,75.7,64.9,29.71,West,270,1.0,0.0,69,0.00,,---,0.00,VWS V14.00,2013-06-17 06:30:00,
2013-06-17 02:35:00,75.7,64.4,29.71,West,270,1.0,0.0,68,0.00,,---,0.00,VWS V14.00,2013-06-17 06:35:00,
2013-06-17 02:40:00,75.6,64.7,29.71,West,270,1.0,0.0,69,0.00,,---,0.00,VWS V14.00,2013-06-17 06:40:00,
2013-06-17 02:45:00,75.6,64.7,29.71,West,270,1.0,0.0,69,0.00,,---,0.00,VWS V14.00,2013-06-17 06:45:00,
2013-06-17 02:50:00,75.6,64.7,29.71,West,270,1.0,0.0,69,0.00,,---,0.00,VWS V14.00,2013-06-17 06:50:00,
2013-06-17 02:55:00,75.6,64.7,29.71,West,270,1.0,0.0,69,0.00,,---,0.00,VWS V14.00,2013-06-17 06:55:00,
2013-06-17 03:00:00,75.6,64.7,29.71,West,270,1.0,0.0,69,0.00,,---,0.00,VWS V14.00,2013-06-17 07:00:00,
2013-06-17 03:05:00,75.6,64.7,29.74,West,270,1.0,0.0,69,0.00,,---,0.00,VWS V14.00,2013-06-17 07:05:00,
2013-06-17 03:11:00,75.4,64.5,29.74,West,270,1.0,0.0,69,0.00,,---,0.00,VWS V14.00,2013-06-17 07:11:00,
2013-06-17 03:16:00,75.6,64.7,29.74,West,270,1.0,0.0,69,0.00,,---,0.00,VWS V14.00,2013-06-17 07:16:00,
2013-06-17 03:21:00,75.6,64.7,29.71,West,270,1.0,0.0,69,0.00,,---,0.00,VWS V14.00,2013-06-17 07:21:00,
2013-06-17 03:27:00,75.6,64.7,29.71,West,270,1.0,0.0,69,0.00,,---,0.00,VWS V14.00,2013-06-17 07:27:00,
2013-06-17 03:32:00,75.6,64.7,29.74,West,270,1.0,0.0,69,0.00,,---,0.00,VWS V14.00,2013-06-17 07:32:00,
2013-06-17 03:37:00,75.6,64.7,29.74,West,270,1.0,0.0,69,0.00,,---,0.00,VWS V14.00,2013-06-17 07:37:00,
2013-06-17 03:42:00,75.6,64.7,29.74,West,270,1.0,0.0,69,0.00,,---,0.00,VWS V14.00,2013-06-17 07:42:00,
2013-06-17 03:47:00,75.6,65.1,29.74,West,270,1.0,0.0,70,0.00,,---,0.00,VWS V14.00,2013-06-17 07:47:00,
2013-06-17 03:52:00,75.6,65.1,29.74,West,270,2.1,2.1,70,0.00,,---,0.00,VWS V14.00,2013-06-17 07:52:00,
2013-06-17 03:57:00,75.6,65.1,29.74,SSW,202,1.0,1.0,70,0.00,,---,0.00,VWS V14.00,2013-06-17 07:57:00,
2013-06-17 04:02:00,75.6,65.1,29.74,SSW,202,1.0,1.0,70,0.00,,---,0.00,VWS V14.00,2013-06-17 08:02:00,
2013-06-17 04:07:00,75.4,64.9,29.74,SSW,202,1.0,0.0,70,0.00,,---,0.00,VWS V14.00,2013-06-17 08:07:00,
2013-06-17 04:12:00,75.4,65.3,29.74,SSW,202,1.0,1.0,71,0.00,,---,0.00,VWS V14.00,2013-06-17 08:12:00,
2013-06-17 04:17:00,75.2,65.2,29.71,SSW,202,1.0,1.0,71,0.00,,---,0.00,VWS V14.00,2013-06-17 08:17:00,
2013-06-17 04:22:00,75.2,65.6,29.71,SW,225,1.0,0.0,72,0.00,,---,0.00,VWS V14.00,2013-06-17 08:22:00,
2013-06-17 04:28:00,75.0,66.2,29.71,South,180,1.0,0.0,74,0.00,,---,0.00,VWS V14.00,2013-06-17 08:28:00,
2013-06-17 04:34:00,74.7,66.2,29.71,SW,225,1.0,0.0,75,0.00,,---,0.00,VWS V14.00,2013-06-17 08:34:00,
2013-06-17 04:39:00,74.7,66.2,29.71,SSW,202,1.0,0.0,75,0.00,,---,0.00,VWS V14.00,2013-06-17 08:39:00,
2013-06-17 04:44:00,74.5,66.4,29.71,SW,225,1.0,0.0,76,0.00,,---,0.00,VWS V14.00,2013-06-17 08:44:00,
2013-06-17 04:49:00,74.5,66.4,29.71,SW,225,1.0,0.0,76,0.00,,---,0.00,VWS V14.00,2013-06-17 08:49:00,
2013-06-17 04:54:00,74.3,66.6,29.71,SW,225,4.1,4.1,77,0.00,,---,0.00,VWS V14.00,2013-06-17 08:54:00,
2013-06-17 05:00:00,74.3,67.0,29.71,SW,225,2.7,2.7,78,0.00,,---,0.00,VWS V14.00,2013-06-17 09:00:00,
2013-06-17 05:06:00,74.1,66.8,29.71,WSW,248,4.6,4.6,78,0.00,,---,0.00,VWS V14.00,2013-06-17 09:06:00,
2013-06-17 05:11:00,74.1,67.2,29.71,WSW,248,3.0,3.0,79,0.00,,---,0.00,VWS V14.00,2013-06-17 09:11:00,
2013-06-17 05:17:00,73.9,67.0,29.71,SW,225,3.5,3.5,79,0.00,,---,0.00,VWS V14.00,2013-06-17 09:17:00,
2013-06-17 05:22:00,73.9,67.4,29.71,SW,225,3.0,3.4,80,0.00,,---,0.00,VWS V14.00,2013-06-17 09:22:00,
2013-06-17 05:27:00,73.9,67.4,29.71,SW,225,3.0,3.0,80,0.00,,---,0.00,VWS V14.00,2013-06-17 09:27:00,
2013-06-17 05:32:00,73.8,67.2,29.71,West,270,2.4,2.4,80,0.00,,---,0.00,VWS V14.00,2013-06-17 09:32:00,
2013-06-17 05:37:00,73.9,67.4,29.71,WNW,292,4.6,4.6,80,0.00,,---,0.00,VWS V14.00,2013-06-17 09:37:00,
2013-06-17 05:42:00,73.8,67.2,29.71,SSW,202,3.5,3.5,80,0.00,,---,0.00,VWS V14.00,2013-06-17 09:42:00,
2013-06-17 05:48:00,73.8,67.2,29.68,SSW,202,5.8,5.8,80,0.00,,---,0.00,VWS V14.00,2013-06-17 09:48:00,
2013-06-17 05:53:00,73.6,66.7,29.68,South,180,4.9,4.9,79,0.00,,---,0.00,VWS V14.00,2013-06-17 09:53:00,
2013-06-17 05:58:00,73.4,66.5,29.68,East,90,3.5,3.5,79,0.00,,---,0.00,VWS V14.00,2013-06-17 09:58:00,
2013-06-17 06:03:00,73.2,66.3,29.71,NW,315,2.7,2.9,79,0.00,,---,0.00,VWS V14.00,2013-06-17 10:03:00,
2013-06-17 06:08:00,73.2,66.3,29.71,NNW,338,3.5,3.5,79,0.00,,---,0.00,VWS V14.00,2013-06-17 10:08:00,
2013-06-17 06:13:00,73.2,66.3,29.71,NW,315,3.5,3.5,79,0.00,,---,0.00,VWS V14.00,2013-06-17 10:13:00,
2013-06-17 06:18:00,73.0,66.2,29.68,South,180,2.4,2.5,79,0.00,,---,0.00,VWS V14.00,2013-06-17 10:18:00,
2013-06-17 06:23:00,73.0,66.2,29.68,SSE,158,4.1,4.1,79,0.00,,---,0.00,VWS V14.00,2013-06-17 10:23:00,
2013-06-17 06:28:00,72.9,66.0,29.68,WSW,248,1.0,0.0,79,0.00,,---,0.00,VWS V14.00,2013-06-17 10:28:00,
2013-06-17 06:33:00,72.9,66.0,29.71,NW,315,2.4,2.4,79,0.00,,---,0.00,VWS V14.00,2013-06-17 10:33:00,
2013-06-17 06:38:00,72.9,66.0,29.71,NW,315,1.0,0.0,79,0.00,,---,0.00,VWS V14.00,2013-06-17 10:38:00,
2013-06-17 06:43:00,72.9,66.0,29.71,NW,315,2.1,2.1,79,0.00,,---,0.00,VWS V14.00,2013-06-17 10:43:00,
2013-06-17 06:48:00,72.9,66.0,29.71,NNW,338,3.8,3.8,79,0.00,,---,0.00,VWS V14.00,2013-06-17 10:48:00,
2013-06-17 06:53:00,73.0,66.2,29.71,NNW,338,4.9,4.9,79,0.00,,---,0.00,VWS V14.00,2013-06-17 10:53:00,
2013-06-17 06:58:00,73.0,66.2,29.71,North,0,1.0,0.0,79,0.00,,---,0.00,VWS V14.00,2013-06-17 10:58:00,
2013-06-17 07:03:00,73.0,66.5,29.71,North,0,2.1,2.1,80,0.00,,---,0.00,VWS V14.00,2013-06-17 11:03:00,
2013-06-17 07:08:00,73.0,66.5,29.71,North,0,1.0,0.0,80,0.00,,---,0.00,VWS V14.00,2013-06-17 11:08:00,
2013-06-17 07:13:00,73.0,66.5,29.71,North,0,1.0,0.0,80,0.00,,---,0.00,VWS V14.00,2013-06-17 11:13:00,
2013-06-17 07:18:00,73.2,66.7,29.71,North,0,4.9,4.9,80,0.00,,---,0.00,VWS V14.00,2013-06-17 11:18:00,
2013-06-17 07:23:00,73.2,66.7,29.71,NNW,338,4.6,4.6,80,0.00,,---,0.00,VWS V14.00,2013-06-17 11:23:00,
2013-06-17 07:29:00,73.6,66.7,29.71,NNW,338,1.0,0.0,79,0.00,,---,0.00,VWS V14.00,2013-06-17 11:29:00,
2013-06-17 07:34:00,73.8,66.8,29.71,NNW,338,1.0,1.0,79,0.00,,---,0.00,VWS V14.00,2013-06-17 11:34:00,
2013-06-17 07:39:00,73.9,67.0,29.71,WNW,292,1.0,0.0,79,0.00,,---,0.00,VWS V14.00,2013-06-17 11:39:00,
2013-06-17 07:44:00,73.9,67.0,29.71,WNW,292,1.0,0.0,79,0.00,,---,0.00,VWS V14.00,2013-06-17 11:44:00,
2013-06-17 07:49:00,73.9,67.0,29.74,WNW,292,3.0,3.0,79,0.00,,---,0.00,VWS V14.00,2013-06-17 11:49:00,
2013-06-17 07:54:00,73.9,67.0,29.74,South,180,2.7,2.7,79,0.00,,---,0.00,VWS V14.00,2013-06-17 11:54:00,
2013-06-17 07:59:00,74.1,66.8,29.74,South,180,1.0,0.0,78,0.00,,---,0.00,VWS V14.00,2013-06-17 11:59:00,
2013-06-17 08:04:00,74.1,66.8,29.71,SE,135,3.5,3.5,78,0.00,,---,0.00,VWS V14.00,2013-06-17 12:04:00,
2013-06-17 08:09:00,74.3,67.4,29.71,SE,135,3.8,3.8,79,0.00,,---,0.00,VWS V14.00,2013-06-17 12:09:00,
2013-06-17 08:14:00,74.5,67.6,29.71,SE,135,3.0,3.0,79,0.00,,---,0.00,VWS V14.00,2013-06-17 12:14:00,
2013-06-17 08:19:00,74.5,67.6,29.71,ESE,112,3.0,3.0,79,0.00,,---,0.00,VWS V14.00,2013-06-17 12:19:00,
2013-06-17 08:24:00,74.5,67.6,29.71,SE,135,3.0,3.0,79,0.00,,---,0.00,VWS V14.00,2013-06-17 12:24:00,
2013-06-17 08:29:00,74.7,67.7,29.71,South,180,3.5,3.5,79,0.00,,---,0.00,VWS V14.00,2013-06-17 12:29:00,
2013-06-17 08:34:00,74.8,68.3,29.71,SSW,202,3.0,3.0,80,0.00,,---,0.00,VWS V14.00,2013-06-17 12:34:00,
2013-06-17 08:39:00,75.0,68.4,29.71,SSE,158,3.0,3.0,80,0.00,,---,0.00,VWS V14.00,2013-06-17 12:39:00,
2013-06-17 08:45:00,75.6,69.0,29.71,East,90,1.0,2.2,80,0.00,,---,0.00,VWS V14.00,2013-06-17 12:45:00,
2013-06-17 08:50:00,76.5,70.2,29.74,ESE,112,5.2,5.2,81,0.00,,---,0.00,VWS V14.00,2013-06-17 12:50:00,
2013-06-17 08:55:00,77.0,70.4,29.74,SE,135,4.4,4.4,80,0.00,,---,0.00,VWS V14.00,2013-06-17 12:55:00,
2013-06-17 09:00:00,77.0,70.0,29.74,SE,135,1.0,2.5,79,0.00,,---,0.00,VWS V14.00,2013-06-17 13:00:00,
2013-06-17 09:05:00,77.0,69.6,29.74,ENE,68,3.8,3.8,78,0.00,,---,0.00,VWS V14.00,2013-06-17 13:05:00,
2013-06-17 09:11:00,77.5,70.1,29.74,South,180,4.1,4.1,78,0.00,,---,0.00,VWS V14.00,2013-06-17 13:11:00,
2013-06-17 09:16:00,77.9,70.5,29.74,SSE,158,3.5,3.5,78,0.00,,---,0.00,VWS V14.00,2013-06-17 13:16:00,
2013-06-17 09:21:00,78.1,70.3,29.74,SSE,158,4.9,4.9,77,0.00,,---,0.00,VWS V14.00,2013-06-17 13:21:00,
2013-06-17 09:26:00,78.3,70.1,29.74,SE,135,3.8,3.8,76,0.00,,---,0.00,VWS V14.00,2013-06-17 13:26:00,
2013-06-17 09:31:00,78.4,70.2,29.74,South,180,5.5,5.5,76,0.00,,---,0.00,VWS V14.00,2013-06-17 13:31:00,
2013-06-17 09:37:00,78.8,70.2,29.74,SSE,158,4.6,4.6,75,0.00,,---,0.00,VWS V14.00,2013-06-17 13:37:00,
2013-06-17 09:43:00,79.5,70.1,29.74,South,180,5.8,5.8,73,0.00,,---,0.00,VWS V14.00,2013-06-17 13:43:00,
2013-06-17 09:49:00,80.1,70.6,29.71,ESE,112,1.0,1.3,73,0.00,,---,0.00,VWS V14.00,2013-06-17 13:49:00,
2013-06-17 09:54:00,80.6,70.8,29.71,SSW,202,4.6,4.9,72,0.00,,---,0.00,VWS V14.00,2013-06-17 13:54:00,
2013-06-17 09:59:00,81.0,70.3,29.71,South,180,4.4,4.4,70,0.00,,---,0.00,VWS V14.00,2013-06-17 13:59:00,
2013-06-17 10:04:00,81.5,69.9,29.74,East,90,4.1,4.1,68,0.00,,---,0.00,VWS V14.00,2013-06-17 14:04:00,
2013-06-17 10:10:00,81.9,69.8,29.74,SSE,158,8.0,8.0,67,0.00,,---,0.00,VWS V14.00,2013-06-17 14:10:00,
2013-06-17 10:15:00,82.2,70.2,29.74,SSE,158,4.1,4.1,67,0.00,,---,0.00,VWS V14.00,2013-06-17 14:15:00,
2013-06-17 10:20:00,82.8,70.2,29.74,SW,225,4.6,4.6,66,0.00,,---,0.00,VWS V14.00,2013-06-17 14:20:00,
2013-06-17 10:26:00,82.9,70.4,29.74,SSE,158,5.5,5.5,66,0.00,,---,0.00,VWS V14.00,2013-06-17 14:26:00,
2013-06-17 10:31:00,83.1,70.6,29.74,South,180,3.0,3.0,66,0.00,,---,0.00,VWS V14.00,2013-06-17 14:31:00,
2013-06-17 10:37:00,83.5,70.5,29.74,SSE,158,4.6,4.6,65,0.00,,---,0.00,VWS V14.00,2013-06-17 14:37:00,
2013-06-17 10:42:00,84.2,71.2,29.74,SW,225,5.2,5.2,65,0.00,,---,0.00,VWS V14.00,2013-06-17 14:42:00,
2013-06-17 10:47:00,84.6,71.1,29.74,South,180,4.9,4.9,64,0.00,,---,0.00,VWS V14.00,2013-06-17 14:47:00,
2013-06-17 10:52:00,84.6,70.6,29.74,SSE,158,8.8,8.8,63,0.00,,---,0.00,VWS V14.00,2013-06-17 14:52:00,
2013-06-17 10:57:00,84.6,70.6,29.74,SSW,202,4.9,4.9,63,0.00,,---,0.00,VWS V14.00,2013-06-17 14:57:00,
2013-06-17 11:02:00,84.7,70.8,29.74,SSW,202,3.8,3.8,63,0.00,,---,0.00,VWS V14.00,2013-06-17 15:02:00,
2013-06-17 11:08:00,85.1,71.1,29.74,SSE,158,7.2,7.2,63,0.00,,---,0.00,VWS V14.00,2013-06-17 15:08:00,
2013-06-17 11:13:00,85.3,70.8,29.74,NE,45,2.1,2.1,62,0.00,,---,0.00,VWS V14.00,2013-06-17 15:13:00,
2013-06-17 11:19:00,85.1,70.2,29.74,SW,225,4.6,4.6,61,0.00,,---,0.00,VWS V14.00,2013-06-17 15:19:00,
2013-06-17 11:25:00,84.9,70.0,29.74,SW,225,4.1,4.9,61,0.00,,---,0.00,VWS V14.00,2013-06-17 15:25:00,
2013-06-17 11:30:00,84.7,69.8,29.74,SSE,158,4.6,4.6,61,0.00,,---,0.00,VWS V14.00,2013-06-17 15:30:00,
2013-06-17 11:35:00,84.6,70.1,29.74,West,270,3.8,3.8,62,0.00,,---,0.00,VWS V14.00,2013-06-17 15:35:00,
2013-06-17 11:41:00,85.1,70.6,29.74,SSE,158,5.5,5.5,62,0.00,,---,0.00,VWS V14.00,2013-06-17 15:41:00,
2013-06-17 11:46:00,86.2,71.6,29.74,SSE,158,6.0,6.0,62,0.00,,---,0.00,VWS V14.00,2013-06-17 15:46:00,
2013-06-17 11:51:00,87.1,72.0,29.74,South,180,3.5,3.5,61,0.00,,---,0.00,VWS V14.00,2013-06-17 15:51:00,
2013-06-17 11:56:00,88.3,73.2,29.74,WSW,248,3.8,3.8,61,0.00,,---,0.00,VWS V14.00,2013-06-17 15:56:00,
2013-06-17 12:01:00,88.9,72.7,29.74,SE,135,3.5,3.5,59,0.00,,---,0.00,VWS V14.00,2013-06-17 16:01:00,
2013-06-17 12:06:00,89.2,73.1,29.74,SSW,202,4.6,4.9,59,0.00,,---,0.00,VWS V14.00,2013-06-17 16:06:00,
2013-06-17 12:11:00,89.4,71.1,29.74,NW,315,5.2,5.2,55,0.00,,---,0.00,VWS V14.00,2013-06-17 16:11:00,
2013-06-17 12:16:00,89.4,71.1,29.74,WSW,248,6.3,6.3,55,0.00,,---,0.00,VWS V14.00,2013-06-17 16:16:00,
2013-06-17 12:21:00,89.2,70.4,29.74,SSE,158,6.3,6.3,54,0.00,,---,0.00,VWS V14.00,2013-06-17 16:21:00,
2013-06-17 12:26:00,89.4,70.1,29.74,NW,315,4.1,4.7,53,0.00,,---,0.00,VWS V14.00,2013-06-17 16:26:00,
2013-06-17 12:31:00,89.2,69.3,29.74,NE,45,4.6,4.6,52,0.00,,---,0.00,VWS V14.00,2013-06-17 16:31:00,
2013-06-17 12:36:00,88.3,67.9,29.74,WSW,248,8.0,8.0,51,0.00,,---,0.00,VWS V14.00,2013-06-17 16:36:00,
2013-06-17 12:41:00,85.6,61.9,29.74,West,270,12.7,12.7,45,0.00,,---,0.00,VWS V14.00,2013-06-17 16:41:00,
2013-06-17 12:46:00,81.9,62.0,29.74,SW,225,16.4,16.4,51,0.09,,---,0.09,VWS V14.00,2013-06-17 16:46:00,
2013-06-17 12:51:00,76.8,62.8,29.76,WNW,292,2.4,2.4,62,0.46,,---,0.46,VWS V14.00,2013-06-17 16:51:00,
2013-06-17 12:56:00,74.5,62.0,29.76,East,90,3.5,3.5,65,0.59,,---,0.59,VWS V14.00,2013-06-17 16:56:00,
2013-06-17 13:01:00,73.6,62.8,29.76,ENE,68,1.0,1.3,69,0.59,,---,0.59,VWS V14.00,2013-06-17 17:01:00,
2013-06-17 13:06:00,73.4,63.8,29.74,South,180,6.3,6.3,72,0.63,,---,0.63,VWS V14.00,2013-06-17 17:06:00,
2013-06-17 13:11:00,73.0,63.9,29.74,SE,135,5.5,5.5,73,0.63,,---,0.63,VWS V14.00,2013-06-17 17:11:00,
2013-06-17 13:16:00,72.9,64.1,29.74,South,180,4.9,4.9,74,0.63,,---,0.63,VWS V14.00,2013-06-17 17:16:00,
2013-06-17 13:21:00,72.7,64.7,29.74,SE,135,5.5,5.5,76,0.63,,---,0.63,VWS V14.00,2013-06-17 17:21:00,
2013-06-17 13:27:00,72.7,65.8,29.74,SE,135,6.3,6.3,79,0.63,,---,0.63,VWS V14.00,2013-06-17 17:27:00,
2013-06-17 13:32:00,72.9,66.7,29.74,South,180,5.2,5.2,81,0.63,,---,0.63,VWS V14.00,2013-06-17 17:32:00,
2013-06-17 13:38:00,73.2,67.1,29.74,SSE,158,6.0,6.0,81,0.63,,---,0.63,VWS V14.00,2013-06-17 17:38:00,
2013-06-17 13:43:00,73.9,68.8,29.74,South,180,3.8,4.3,84,0.63,,---,0.63,VWS V14.00,2013-06-17 17:43:00,
2013-06-17 13:49:00,74.5,69.3,29.71,South,180,3.5,3.8,84,0.29,,---,0.63,VWS V14.00,2013-06-17 17:49:00,
2013-06-17 13:54:00,75.0,70.6,29.71,ESE,112,5.2,5.8,86,0.13,,---,0.63,VWS V14.00,2013-06-17 17:54:00,
2013-06-17 13:59:00,75.2,70.7,29.71,SSE,158,7.2,7.6,86,0.04,,---,0.63,VWS V14.00,2013-06-17 17:59:00,
2013-06-17 14:04:00,74.8,70.7,29.74,South,180,5.5,5.8,87,0.00,,---,0.63,VWS V14.00,2013-06-17 18:04:00,
2013-06-17 14:09:00,74.7,70.2,29.74,SSW,202,7.2,7.2,86,0.00,,---,0.63,VWS V14.00,2013-06-17 18:09:00,
2013-06-17 14:14:00,74.3,69.8,29.74,SSE,158,8.6,8.6,86,0.08,,---,0.71,VWS V14.00,2013-06-17 18:14:00,
2013-06-17 14:19:00,73.8,69.7,29.76,SW,225,6.3,7.2,87,0.12,,---,0.75,VWS V14.00,2013-06-17 18:19:00,
2013-06-17 14:24:00,73.6,69.5,29.76,SE,135,7.7,7.8,87,0.12,,---,0.75,VWS V14.00,2013-06-17 18:24:00,
2013-06-17 14:29:00,73.2,69.5,29.76,SE,135,8.6,8.6,88,0.17,,---,0.80,VWS V14.00,2013-06-17 18:29:00,
2013-06-17 14:34:00,73.2,69.8,29.74,SSE,158,8.6,12.8,89,0.17,,---,0.80,VWS V14.00,2013-06-17 18:34:00,
2013-06-17 14:39:00,73.0,69.6,29.74,SE,135,14.7,14.7,89,0.17,,---,0.80,VWS V14.00,2013-06-17 18:39:00,
2013-06-17 14:44:00,73.2,70.1,29.74,SE,135,6.9,6.9,90,0.17,,---,0.80,VWS V14.00,2013-06-17 18:44:00,
2013-06-17 14:49:00,73.2,70.1,29.71,SSE,158,10.2,10.2,90,0.21,,---,0.84,VWS V14.00,2013-06-17 18:49:00,
2013-06-17 14:54:00,73.4,70.3,29.71,South,180,10.0,10.0,90,0.21,,---,0.84,VWS V14.00,2013-06-17 18:54:00,
2013-06-17 14:59:00,73.4,70.0,29.71,SW,225,5.5,5.5,89,0.21,,---,0.84,VWS V14.00,2013-06-17 18:59:00,
2013-06-17 15:04:00,73.4,70.0,29.71,SSW,202,5.2,6.5,89,0.21,,---,0.84,VWS V14.00,2013-06-17 19:04:00,
2013-06-17 15:09:00,73.2,70.1,29.71,SW,225,8.3,8.7,90,0.21,,---,0.84,VWS V14.00,2013-06-17 19:09:00,
2013-06-17 15:14:00,73.0,69.9,29.71,SW,225,8.8,8.8,90,0.17,,---,0.84,VWS V14.00,2013-06-17 19:14:00,
2013-06-17 15:19:00,72.9,69.8,29.71,South,180,5.8,5.8,90,0.09,,---,0.84,VWS V14.00,2013-06-17 19:19:00,
2013-06-17 15:24:00,72.7,69.6,29.71,South,180,8.3,8.3,90,0.09,,---,0.84,VWS V14.00,2013-06-17 19:24:00,
2013-06-17 15:29:00,72.7,69.6,29.71,South,180,7.7,7.7,90,0.04,,---,0.84,VWS V14.00,2013-06-17 19:29:00,
2013-06-17 15:34:00,72.5,69.4,29.71,SE,135,11.9,11.9,90,0.04,,---,0.84,VWS V14.00,2013-06-17 19:34:00,
2013-06-17 15:39:00,72.5,69.4,29.71,South,180,11.1,14.5,90,0.04,,---,0.84,VWS V14.00,2013-06-17 19:39:00,
2013-06-17 15:45:00,72.5,69.7,29.71,SSW,202,9.1,9.1,91,0.04,,---,0.84,VWS V14.00,2013-06-17 19:45:00,
2013-06-17 15:50:00,72.5,69.7,29.68,SSW,202,8.6,11.2,91,0.00,,---,0.84,VWS V14.00,2013-06-17 19:50:00,
2013-06-17 15:55:00,72.7,69.9,29.68,SSE,158,10.5,10.5,91,0.00,,---,0.84,VWS V14.00,2013-06-17 19:55:00,
2013-06-17 16:01:00,73.0,70.3,29.68,ESE,112,8.3,8.3,91,0.00,,---,0.84,VWS V14.00,2013-06-17 20:01:00,
2013-06-17 16:06:00,74.3,71.8,29.68,SSE,158,8.6,8.6,92,0.00,,---,0.84,VWS V14.00,2013-06-17 20:06:00,
2013-06-17 16:11:00,75.4,73.2,29.68,WSW,248,4.9,4.9,93,0.00,,---,0.84,VWS V14.00,2013-06-17 20:11:00,
2013-06-17 16:16:00,75.9,73.4,29.68,SW,225,4.6,4.6,92,0.00,,---,0.84,VWS V14.00,2013-06-17 20:16:00,
2013-06-17 16:21:00,76.3,73.8,29.68,SSW,202,4.6,4.6,92,0.00,,---,0.84,VWS V14.00,2013-06-17 20:21:00,
2013-06-17 16:26:00,76.1,73.3,29.68,South,180,2.1,4.7,91,0.00,,---,0.84,VWS V14.00,2013-06-17 20:26:00,
2013-06-17 16:31:00,76.3,73.1,29.68,SSW,202,7.7,7.7,90,0.00,,---,0.84,VWS V14.00,2013-06-17 20:31:00,
2013-06-17 16:36:00,77.0,73.8,29.68,SW,225,8.0,8.0,90,0.00,,---,0.84,VWS V14.00,2013-06-17 20:36:00,
2013-06-17 16:41:00,77.5,74.4,29.68,SSE,158,4.1,4.9,90,0.00,,---,0.84,VWS V14.00,2013-06-17 20:41:00,
2013-06-17 16:46:00,78.1,74.6,29.68,SSW,202,8.3,8.3,89,0.00,,---,0.84,VWS V14.00,2013-06-17 20:46:00,
2013-06-17 16:51:00,77.7,73.2,29.68,South,180,5.5,8.7,86,0.00,,---,0.84,VWS V14.00,2013-06-17 20:51:00,
2013-06-17 16:56:00,77.7,73.2,29.68,WSW,248,6.3,6.3,86,0.00,,---,0.84,VWS V14.00,2013-06-17 20:56:00,
2013-06-17 17:01:00,77.9,73.0,29.68,WSW,248,4.9,4.9,85,0.00,,---,0.84,VWS V14.00,2013-06-17 21:01:00,
2013-06-17 17:06:00,78.1,72.9,29.68,SSW,202,4.9,4.9,84,0.00,,---,0.84,VWS V14.00,2013-06-17 21:06:00,
2013-06-17 17:11:00,78.1,72.9,29.68,WSW,248,3.5,3.5,84,0.00,,---,0.84,VWS V14.00,2013-06-17 21:11:00,
2013-06-17 17:16:00,78.3,73.0,29.68,SW,225,3.5,6.0,84,0.00,,---,0.84,VWS V14.00,2013-06-17 21:16:00,
2013-06-17 17:21:00,78.1,72.5,29.68,SSE,158,4.9,8.1,83,0.00,,---,0.84,VWS V14.00,2013-06-17 21:21:00,
2013-06-17 17:26:00,78.3,72.7,29.68,South,180,7.7,7.7,83,0.00,,---,0.84,VWS V14.00,2013-06-17 21:26:00,
2013-06-17 17:31:00,77.9,71.6,29.68,ESE,112,11.6,11.6,81,0.00,,---,0.84,VWS V14.00,2013-06-17 21:31:00,
2013-06-17 17:36:00,77.2,70.9,29.68,South,180,4.1,7.4,81,0.00,,---,0.84,VWS V14.00,2013-06-17 21:36:00,
2013-06-17 17:42:00,77.0,70.7,29.68,South,180,4.9,5.4,81,0.00,,---,0.84,VWS V14.00,2013-06-17 21:42:00,
2013-06-17 17:48:00,77.0,70.7,29.68,ESE,112,8.8,8.8,81,0.00,,---,0.84,VWS V14.00,2013-06-17 21:48:00,
2013-06-17 17:53:00,76.8,70.9,29.68,SSE,158,6.3,6.3,82,0.00,,---,0.84,VWS V14.00,2013-06-17 21:53:00,
2013-06-17 17:58:00,76.8,70.9,29.68,SW,225,6.0,6.0,82,0.00,,---,0.84,VWS V14.00,2013-06-17 21:58:00,
2013-06-17 18:03:00,76.6,70.7,29.65,SW,225,4.4,4.4,82,0.00,,---,0.84,VWS V14.00,2013-06-17 22:03:00,
2013-06-17 18:08:00,76.3,70.7,29.65,SW,225,4.6,4.6,83,0.00,,---,0.84,VWS V14.00,2013-06-17 22:08:00,
2013-06-17 18:13:00,75.9,70.4,29.65,SSE,158,2.1,2.1,83,0.00,,---,0.84,VWS V14.00,2013-06-17 22:13:00,
2013-06-17 18:18:00,75.7,70.2,29.65,WSW,248,4.6,4.6,83,0.00,,---,0.84,VWS V14.00,2013-06-17 22:18:00,
2013-06-17 18:23:00,75.7,70.6,29.65,SW,225,3.0,3.0,84,0.00,,---,0.84,VWS V14.00,2013-06-17 22:23:00,
2013-06-17 18:28:00,75.9,70.7,29.65,WSW,248,3.0,3.0,84,0.00,,---,0.84,VWS V14.00,2013-06-17 22:28:00,
2013-06-17 18:34:00,76.3,71.1,29.62,WNW,292,2.4,2.4,84,0.00,,---,0.84,VWS V14.00,2013-06-17 22:34:00,
2013-06-17 18:40:00,76.5,71.3,29.62,NNW,338,1.0,2.2,84,0.00,,---,0.84,VWS V14.00,2013-06-17 22:40:00,
2013-06-17 18:45:00,76.6,71.4,29.62,NW,315,3.8,3.8,84,0.00,,---,0.84,VWS V14.00,2013-06-17 22:45:00,
2013-06-17 18:51:00,76.6,71.4,29.65,NW,315,1.0,2.0,84,0.00,,---,0.84,VWS V14.00,2013-06-17 22:51:00,
2013-06-17 18:56:00,76.5,70.9,29.65,WNW,292,1.0,2.2,83,0.00,,---,0.84,VWS V14.00,2013-06-17 22:56:00,
2013-06-17 19:01:00,76.3,70.7,29.65,NNW,338,4.9,4.9,83,0.00,,---,0.84,VWS V14.00,2013-06-17 23:01:00,
2013-06-17 19:06:00,75.9,70.4,29.65,NNW,338,1.0,2.5,83,0.00,,---,0.84,VWS V14.00,2013-06-17 23:06:00,
2013-06-17 19:12:00,75.6,70.0,29.65,NNW,338,1.0,0.0,83,0.00,,---,0.84,VWS V14.00,2013-06-17 23:12:00,
2013-06-17 19:17:00,75.4,70.2,29.65,NNW,338,1.0,0.0,84,0.00,,---,0.84,VWS V14.00,2013-06-17 23:17:00,
2013-06-17 19:22:00,75.4,70.2,29.65,NNW,338,1.0,0.0,84,0.00,,---,0.84,VWS V14.00,2013-06-17 23:22:00,
2013-06-17 19:27:00,75.2,70.0,29.65,NNW,338,2.4,2.4,84,0.00,,---,0.84,VWS V14.00,2013-06-17 23:27:00,
2013-06-17 19:32:00,75.0,69.9,29.65,NNW,338,3.0,3.0,84,0.00,,---,0.84,VWS V14.00,2013-06-17 23:32:00,
2013-06-17 19:37:00,75.0,69.9,29.65,NNW,338,1.0,2.5,84,0.00,,---,0.84,VWS V14.00,2013-06-17 23:37:00,
2013-06-17 19:42:00,75.0,70.2,29.65,NNW,338,1.0,1.1,85,0.00,,---,0.84,VWS V14.00,2013-06-17 23:42:00,
2013-06-17 19:47:00,74.8,70.0,29.65,NNW,338,1.0,0.0,85,0.00,,---,0.84,VWS V14.00,2013-06-17 23:47:00,
2013-06-17 19:52:00,74.7,70.2,29.65,NNW,338,1.0,0.0,86,0.00,,---,0.84,VWS V14.00,2013-06-17 23:52:00,
2013-06-17 19:58:00,74.5,70.0,29.65,NNW,338,1.0,0.0,86,0.00,,---,0.84,VWS V14.00,2013-06-17 23:58:00,
2013-06-17 20:03:00,74.5,70.0,29.65,NNW,338,1.0,0.0,86,0.04,,---,0.88,VWS V14.00,2013-06-18 00:03:00,
2013-06-17 20:08:00,74.3,69.8,29.65,NNW,338,1.0,0.0,86,0.04,,---,0.88,VWS V14.00,2013-06-18 00:08:00,
2013-06-17 20:13:00,74.1,69.7,29.65,NNW,338,1.0,0.0,86,0.04,,---,0.88,VWS V14.00,2013-06-18 00:13:00,
2013-06-17 20:18:00,74.1,70.0,29.68,NNW,338,1.0,0.0,87,0.04,,---,0.88,VWS V14.00,2013-06-18 00:18:00,
2013-06-17 20:23:00,74.1,70.0,29.68,NNW,338,1.0,0.0,87,0.04,,---,0.88,VWS V14.00,2013-06-18 00:23:00,
2013-06-17 20:28:00,73.9,69.8,29.68,NNW,338,1.0,0.0,87,0.04,,---,0.88,VWS V14.00,2013-06-18 00:28:00,
2013-06-17 20:33:00,73.9,69.8,29.68,NNW,338,2.1,2.1,87,0.04,,---,0.88,VWS V14.00,2013-06-18 00:33:00,
2013-06-17 20:38:00,73.9,70.2,29.68,NNW,338,2.7,2.7,88,0.04,,---,0.88,VWS V14.00,2013-06-18 00:38:00,
2013-06-17 20:43:00,73.9,70.2,29.68,NNW,338,2.4,2.4,88,0.04,,---,0.88,VWS V14.00,2013-06-18 00:43:00,
2013-06-17 20:48:00,73.8,70.0,29.68,NNW,338,1.0,1.1,88,0.04,,---,0.88,VWS V14.00,2013-06-18 00:48:00,
2013-06-17 20:53:00,73.8,70.3,29.68,NNW,338,2.4,2.4,89,0.04,,---,0.88,VWS V14.00,2013-06-18 00:53:00,
2013-06-17 20:58:00,73.8,70.3,29.68,NNW,338,2.7,2.7,89,0.08,,---,0.92,VWS V14.00,2013-06-18 00:58:00,
2013-06-17 21:03:00,73.8,70.3,29.68,NNW,338,3.8,3.8,89,0.08,,---,0.92,VWS V14.00,2013-06-18 01:03:00,
2013-06-17 21:08:00,73.9,70.5,29.68,NNW,338,1.0,0.0,89,0.04,,---,0.92,VWS V14.00,2013-06-18 01:08:00,
2013-06-17 21:14:00,73.8,70.3,29.68,NNW,338,1.0,1.3,89,0.04,,---,0.92,VWS V14.00,2013-06-18 01:14:00,
2013-06-17 21:19:00,73.8,70.3,29.68,NNW,338,1.0,0.0,89,0.04,,---,0.92,VWS V14.00,2013-06-18 01:19:00,
2013-06-17 21:24:00,73.6,70.1,29.68,NNW,338,1.0,0.0,89,0.04,,---,0.92,VWS V14.00,2013-06-18 01:24:00,
2013-06-17 21:29:00,73.6,70.1,29.68,SE,135,3.8,3.8,89,0.04,,---,0.92,VWS V14.00,2013-06-18 01:29:00,
2013-06-17 21:34:00,73.4,70.0,29.68,SE,135,1.0,0.0,89,0.04,,---,0.92,VWS V14.00,2013-06-18 01:34:00,
2013-06-17 21:39:00,73.4,70.3,29.68,SE,135,1.0,0.0,90,0.04,,---,0.92,VWS V14.00,2013-06-18 01:39:00,
2013-06-17 21:44:00,73.4,70.3,29.68,SE,135,1.0,0.0,90,0.04,,---,0.92,VWS V14.00,2013-06-18 01:44:00,
2013-06-17 21:49:00,73.4,70.3,29.68,NW,315,1.0,0.0,90,0.04,,---,0.92,VWS V14.00,2013-06-18 01:49:00,
2013-06-17 21:54:00,73.4,70.3,29.68,North,0,1.0,2.5,90,0.04,,---,0.92,VWS V14.00,2013-06-18 01:54:00,
2013-06-17 21:59:00,73.4,70.3,29.68,NW,315,1.0,0.0,90,0.00,,---,0.92,VWS V14.00,2013-06-18 01:59:00,
2013-06-17 22:04:00,73.4,70.3,29.68,NNE,22,4.6,4.6,90,0.00,,---,0.92,VWS V14.00,2013-06-18 02:04:00,
2013-06-17 22:09:00,73.2,70.4,29.68,NNW,338,5.8,5.8,91,0.00,,---,0.92,VWS V14.00,2013-06-18 02:09:00,
2013-06-17 22:14:00,73.2,70.4,29.68,NNW,338,4.9,4.9,91,0.00,,---,0.92,VWS V14.00,2013-06-18 02:14:00,
2013-06-17 22:19:00,73.0,70.3,29.68,NNW,338,5.5,5.5,91,0.00,,---,0.92,VWS V14.00,2013-06-18 02:19:00,
2013-06-17 22:24:00,73.0,70.3,29.68,NNW,338,6.0,6.0,91,0.00,,---,0.92,VWS V14.00,2013-06-18 02:24:00,
2013-06-17 22:29:00,72.9,70.1,29.68,NNW,338,6.0,6.0,91,0.00,,---,0.92,VWS V14.00,2013-06-18 02:29:00,
2013-06-17 22:34:00,72.7,69.9,29.68,North,0,5.8,5.8,91,0.00,,---,0.92,VWS V14.00,2013-06-18 02:34:00,
2013-06-17 22:40:00,72.7,70.2,29.68,North,0,6.3,7.2,92,0.00,,---,0.92,VWS V14.00,2013-06-18 02:40:00,
2013-06-17 22:46:00,72.5,70.1,29.68,NNW,338,5.2,5.2,92,0.00,,---,0.92,VWS V14.00,2013-06-18 02:46:00,
2013-06-17 22:51:00,72.3,69.9,29.68,NNW,338,8.8,8.8,92,0.00,,---,0.92,VWS V14.00,2013-06-18 02:51:00,
2013-06-17 22:56:00,72.1,69.7,29.68,North,0,5.8,5.8,92,0.00,,---,0.92,VWS V14.00,2013-06-18 02:56:00,
2013-06-17 23:02:00,71.8,69.0,29.71,NNW,338,6.9,6.9,91,0.00,,---,0.92,VWS V14.00,2013-06-18 03:02:00,
2013-06-17 23:07:00,71.6,68.8,29.71,North,0,4.9,6.5,91,0.00,,---,0.92,VWS V14.00,2013-06-18 03:07:00,
2013-06-17 23:12:00,71.4,68.7,29.71,SSW,202,4.9,4.9,91,0.00,,---,0.92,VWS V14.00,2013-06-18 03:12:00,
2013-06-17 23:17:00,70.7,66.7,29.71,NNW,338,6.0,6.7,87,0.00,,---,0.92,VWS V14.00,2013-06-18 03:17:00,
2013-06-17 23:22:00,70.3,66.0,29.71,NW,315,6.0,6.5,86,0.00,,---,0.92,VWS V14.00,2013-06-18 03:22:00,
2013-06-17 23:27:00,70.0,65.9,29.71,NW,315,5.5,5.5,87,0.00,,---,0.92,VWS V14.00,2013-06-18 03:27:00,
2013-06-17 23:32:00,69.6,65.9,29.71,NW,315,5.5,5.6,88,0.00,,---,0.92,VWS V14.00,2013-06-18 03:32:00,
2013-06-17 23:37:00,69.4,66.1,29.71,NNW,338,3.5,3.6,89,0.00,,---,0.92,VWS V14.00,2013-06-18 03:37:00,
2013-06-17 23:42:00,69.3,66.2,29.71,NW,315,2.7,4.3,90,0.00,,---,0.92,VWS V14.00,2013-06-18 03:42:00,
2013-06-17 23:47:00,69.1,66.3,29.71,SW,225,7.7,7.7,91,0.00,,---,0.92,VWS V14.00,2013-06-18 03:47:00,
2013-06-17 23:52:00,69.1,66.3,29.71,NNW,338,4.9,4.9,91,0.00,,---,0.92,VWS V14.00,2013-06-18 03:52:00,
2013-06-17 23:58:00,69.1,66.7,29.71,NNW,338,6.0,6.0,92,0.00,,---,0.92,VWS V14.00,2013-06-18 03:58:00,